createdAt,value
2022-12-12T00:00:00.020Z,70.85
2022-12-12T00:04:51.661Z,70.26
2022-12-12T00:09:43.621Z,70.21
2022-12-12T00:14:35.163Z,70.55
2022-12-12T00:19:27.001Z,70.68
2022-12-12T00:24:18.561Z,70.33
2022-12-12T00:29:11.224Z,70.07
2022-12-12T00:34:02.810Z,70.42
2022-12-12T00:38:55.285Z,69.74
2022-12-12T00:43:46.927Z,69.73
2022-12-12T00:48:38.551Z,69.42
2022-12-12T00:53:30.475Z,69.74
2022-12-12T00:58:22.299Z,69.81
2022-12-12T01:03:13.975Z,69.40
2022-12-12T01:08:05.616Z,68.47
2022-12-12T01:12:57.329Z,68.73
2022-12-12T01:17:48.872Z,68.07
2022-12-12T01:22:40.441Z,68.93
2022-12-12T01:27:32.318Z,68.51
2022-12-12T01:32:23.859Z,68.16
2022-12-12T01:37:15.418Z,68.57
2022-12-12T01:42:15.329Z,68.41
2022-12-12T01:47:06.881Z,68.10
2022-12-12T01:52:08.390Z,68.23
2022-12-12T01:57:05.132Z,69.04
2022-12-12T02:01:57.038Z,69.25
2022-12-12T02:06:51.788Z,69.20
2022-12-12T02:11:48.121Z,68.75
2022-12-12T02:17:13.619Z,69.24
2022-12-12T02:22:15.236Z,69.43
2022-12-12T02:27:06.699Z,69.13
2022-12-12T02:31:58.629Z,69.06
2022-12-12T02:37:21.137Z,69.37
2022-12-12T02:42:15.654Z,69.44
2022-12-12T02:47:19.419Z,68.84
2022-12-12T02:52:11.883Z,68.71
2022-12-12T02:57:04.916Z,68.61
2022-12-12T03:02:08.312Z,67.38
2022-12-12T03:07:18.040Z,67.78
2022-12-12T03:12:27.776Z,68.41
2022-12-12T03:17:26.298Z,68.66
2022-12-12T03:22:46.316Z,67.29
2022-12-12T03:27:45.305Z,67.52
2022-12-12T03:32:54.330Z,67.87
2022-12-12T03:37:50.929Z,68.07
2022-12-12T03:42:54.293Z,67.67
2022-12-12T03:47:51.464Z,67.60
2022-12-12T03:52:50.080Z,68.35
2022-12-12T03:58:05.598Z,68.54
2022-12-12T04:03:15.701Z,68.88
2022-12-12T04:08:11.718Z,68.37
2022-12-12T04:13:10.590Z,68.05
2022-12-12T04:18:18.918Z,67.38
2022-12-12T04:23:26.700Z,67.15
2022-12-12T04:28:18.595Z,66.98
2022-12-12T04:33:15.633Z,67.66
2022-12-12T04:38:15.461Z,66.60
2022-12-12T04:43:19.130Z,66.96
2022-12-12T04:48:16.489Z,66.89
2022-12-12T04:53:18.179Z,67.88
2022-12-12T04:58:11.219Z,68.09
2022-12-12T05:03:17.798Z,67.47
2022-12-12T05:08:15.792Z,67.25
2022-12-12T05:13:17.262Z,67.79
2022-12-12T05:18:11.234Z,66.84
2022-12-12T05:23:02.805Z,66.84
2022-12-12T05:27:54.377Z,66.43
2022-12-12T05:32:45.982Z,66.19
2022-12-12T05:37:37.829Z,66.87
2022-12-12T05:42:29.419Z,67.29
2022-12-12T05:47:21.080Z,68.32
2022-12-12T05:52:12.671Z,67.36
2022-12-12T05:57:04.218Z,67.18
2022-12-12T06:01:55.777Z,67.42
2022-12-12T06:06:47.355Z,66.86
2022-12-12T06:11:40.338Z,67.50
2022-12-12T06:16:31.858Z,67.66
2022-12-12T06:21:23.865Z,67.51
2022-12-12T06:26:18.177Z,67.77
2022-12-12T06:31:12.154Z,67.92
2022-12-12T06:36:26.213Z,67.28
2022-12-12T06:41:18.651Z,67.49
2022-12-12T06:46:16.807Z,66.81
2022-12-12T06:51:15.580Z,66.84
2022-12-12T06:56:16.117Z,67.50
2022-12-12T07:01:08.051Z,67.50
2022-12-12T07:06:00.831Z,68.15
2022-12-12T07:10:52.434Z,68.69
2022-12-12T07:15:46.417Z,68.72
2022-12-12T07:20:40.409Z,68.23
2022-12-12T07:25:31.941Z,69.35
2022-12-12T07:30:23.509Z,68.22
2022-12-12T07:35:15.490Z,68.58
2022-12-12T07:40:07.549Z,67.45
2022-12-12T07:44:59.238Z,68.36
2022-12-12T07:49:50.763Z,67.49
2022-12-12T07:54:42.367Z,67.90
2022-12-12T07:59:34.016Z,67.03
2022-12-12T08:04:25.675Z,67.37
2022-12-12T08:09:17.810Z,66.23
2022-12-12T08:14:13.162Z,66.40
2022-12-12T08:19:05.243Z,67.11
2022-12-12T08:23:58.599Z,67.32
2022-12-12T08:28:50.994Z,67.16
2022-12-12T08:33:42.795Z,65.81
2022-12-12T08:38:34.370Z,64.41
2022-12-12T08:43:26.161Z,61.56
2022-12-12T08:48:18.009Z,59.84
2022-12-12T08:53:09.635Z,59.25
2022-12-12T08:58:01.314Z,59.49
2022-12-12T09:02:52.986Z,59.41
2022-12-12T09:07:44.681Z,59.21
2022-12-12T09:12:41.437Z,59.72
2022-12-12T09:17:33.533Z,59.26
2022-12-12T09:22:25.098Z,58.36
2022-12-12T09:27:16.714Z,58.49
2022-12-12T09:32:08.865Z,58.83
2022-12-12T09:37:01.069Z,59.74
2022-12-12T09:41:52.723Z,59.15
2022-12-12T09:46:47.703Z,59.53
2022-12-12T09:51:41.839Z,60.33
2022-12-12T09:56:41.579Z,60.83
2022-12-12T10:02:10.499Z,62.01
2022-12-12T10:07:11.321Z,62.54
2022-12-12T10:12:08.351Z,62.36
2022-12-12T10:17:03.759Z,63.01
2022-12-12T10:22:02.203Z,63.44
2022-12-12T10:26:54.496Z,62.79
2022-12-12T10:32:08.326Z,63.22
2022-12-12T10:37:21.659Z,62.78
2022-12-12T10:42:19.277Z,61.89
2022-12-12T10:47:12.825Z,62.38
2022-12-12T10:52:18.165Z,62.83
2022-12-12T10:57:19.906Z,63.44
2022-12-12T11:02:39.583Z,64.18
2022-12-12T11:07:36.720Z,64.35
2022-12-12T11:12:35.332Z,63.48
2022-12-12T11:17:33.740Z,63.61
2022-12-12T11:22:27.240Z,63.03
2022-12-12T11:27:22.734Z,62.42
2022-12-12T11:32:17.473Z,62.60
2022-12-12T11:37:15.958Z,63.40
2022-12-12T11:42:13.653Z,62.68
2022-12-12T11:47:30.144Z,63.57
2022-12-12T11:52:26.106Z,63.58
2022-12-12T11:57:26.721Z,62.50
2022-12-12T12:02:40.727Z,62.09
2022-12-12T12:07:54.362Z,62.86
2022-12-12T12:12:51.645Z,62.18
2022-12-12T12:17:45.874Z,61.45
2022-12-12T12:22:46.532Z,61.91
2022-12-12T12:27:59.264Z,61.54
2022-12-12T12:33:35.546Z,61.09
2022-12-12T12:38:55.431Z,61.48
2022-12-12T12:44:05.746Z,60.54
2022-12-12T12:49:10.425Z,60.84
2022-12-12T12:54:25.931Z,61.65
2022-12-12T12:59:22.817Z,61.37
2022-12-12T13:04:21.762Z,61.09
2022-12-12T13:09:46.920Z,61.36
2022-12-12T13:14:56.519Z,61.33
2022-12-12T13:19:53.370Z,62.42
2022-12-12T13:24:56.349Z,62.28
2022-12-12T13:30:00.585Z,62.69
2022-12-12T13:34:58.435Z,62.80
2022-12-12T13:40:02.087Z,62.68
2022-12-12T13:44:53.627Z,62.89
2022-12-12T13:49:55.709Z,62.94
2022-12-12T13:54:47.690Z,63.19
2022-12-12T13:59:57.628Z,63.19
2022-12-12T14:05:13.114Z,63.68
2022-12-12T14:10:26.272Z,63.30
2022-12-12T14:15:31.283Z,63.26
2022-12-12T14:20:36.093Z,63.63
2022-12-12T14:25:36.943Z,63.11
2022-12-12T14:30:41.069Z,63.77
2022-12-12T14:36:13.567Z,63.99
2022-12-12T14:41:12.428Z,63.66
2022-12-12T14:46:04.361Z,64.43
2022-12-12T14:51:29.682Z,65.27
2022-12-12T14:56:32.486Z,65.36
2022-12-12T15:01:43.479Z,66.15
2022-12-12T15:06:40.766Z,66.68
2022-12-12T15:11:32.439Z,66.58
2022-12-12T15:16:48.565Z,66.71
2022-12-12T15:21:42.427Z,67.33
2022-12-12T15:26:34.962Z,67.18
2022-12-12T15:31:26.677Z,67.16
2022-12-12T15:36:28.360Z,67.53
2022-12-12T15:41:21.090Z,67.76
2022-12-12T15:46:15.252Z,68.34
2022-12-12T15:51:07.355Z,68.54
2022-12-12T15:56:01.907Z,68.53
2022-12-12T16:01:03.079Z,69.65
2022-12-12T16:06:19.611Z,70.36
2022-12-12T16:11:45.701Z,71.59
2022-12-12T16:16:45.380Z,70.99
2022-12-12T16:21:42.127Z,71.30
2022-12-12T16:26:33.700Z,72.65
2022-12-12T16:31:26.128Z,72.03
2022-12-12T16:36:17.705Z,72.01
2022-12-12T16:41:17.716Z,71.80
2022-12-12T16:46:19.583Z,71.27
2022-12-12T16:51:15.919Z,72.15
2022-12-12T16:56:08.001Z,72.12
2022-12-12T17:01:01.586Z,72.88
2022-12-12T17:05:53.362Z,73.34
2022-12-12T17:10:46.896Z,72.61
2022-12-12T17:15:38.513Z,72.90
2022-12-12T17:20:37.462Z,73.31
2022-12-12T17:25:29.756Z,73.37
2022-12-12T17:30:22.115Z,73.76
2022-12-12T17:35:13.905Z,73.86
2022-12-12T17:40:08.163Z,73.59
2022-12-12T17:44:59.858Z,74.56
2022-12-12T17:49:52.117Z,74.40
2022-12-12T17:54:43.884Z,74.42
2022-12-12T17:59:55.444Z,74.94
2022-12-12T18:04:47.061Z,75.31
2022-12-12T18:09:38.666Z,75.27
2022-12-12T18:14:30.563Z,75.53
2022-12-12T18:19:25.245Z,75.54
2022-12-12T18:24:18.076Z,75.91
2022-12-12T18:29:12.185Z,75.99
2022-12-12T18:34:04.486Z,75.86
2022-12-12T18:38:57.198Z,75.79
2022-12-12T18:43:48.728Z,76.51
2022-12-12T18:48:42.610Z,76.27
2022-12-12T18:53:34.746Z,76.05
2022-12-12T18:58:26.548Z,75.67
2022-12-12T19:03:18.098Z,76.31
2022-12-12T19:08:10.849Z,75.27
2022-12-12T19:13:03.226Z,75.33
2022-12-12T19:17:56.126Z,75.06
2022-12-12T19:22:47.703Z,75.18
2022-12-12T19:27:39.547Z,75.74
2022-12-12T19:32:31.216Z,76.85
2022-12-12T19:37:22.871Z,76.61
2022-12-12T19:42:14.893Z,76.28
2022-12-12T19:47:07.297Z,77.00
2022-12-12T19:51:58.879Z,76.60
2022-12-12T19:56:50.916Z,77.03
2022-12-12T20:01:43.178Z,76.86
2022-12-12T20:06:46.794Z,75.84
2022-12-12T20:11:38.795Z,76.53
2022-12-12T20:16:30.629Z,76.18
2022-12-12T20:21:59.160Z,76.82
2022-12-12T20:26:37.470Z,76.67
2022-12-12T20:31:32.235Z,77.54
2022-12-12T20:36:35.333Z,77.00
2022-12-12T20:41:34.075Z,77.39
2022-12-12T20:46:31.838Z,77.72
2022-12-12T20:51:54.152Z,77.88
2022-12-12T20:56:46.001Z,77.94
2022-12-12T21:01:38.196Z,78.05
2022-12-12T21:06:33.962Z,77.77
2022-12-12T21:11:25.547Z,78.69
2022-12-12T21:16:19.812Z,78.79
2022-12-12T21:21:12.037Z,78.23
2022-12-12T21:26:09.361Z,78.63
2022-12-12T21:31:00.989Z,78.71
2022-12-12T21:35:55.750Z,78.98
2022-12-12T21:40:47.305Z,78.63
2022-12-12T21:45:39.374Z,78.66
2022-12-12T21:50:31.973Z,78.76
2022-12-12T21:55:23.534Z,78.95
2022-12-12T22:00:15.294Z,78.91
2022-12-12T22:05:07.578Z,78.92
2022-12-12T22:10:10.351Z,79.50
2022-12-12T22:15:03.317Z,79.55
2022-12-12T22:19:57.322Z,79.48
2022-12-12T22:24:50.436Z,79.55
2022-12-12T22:29:41.946Z,78.75
2022-12-12T22:34:33.543Z,79.11
2022-12-12T22:39:27.301Z,79.43
2022-12-12T22:44:21.649Z,79.96
2022-12-12T22:49:15.268Z,79.56
2022-12-12T22:54:06.960Z,79.36
2022-12-12T22:58:58.655Z,79.90
2022-12-12T23:03:51.802Z,79.24
2022-12-12T23:08:44.238Z,79.56
2022-12-12T23:13:37.743Z,79.52
2022-12-12T23:18:29.355Z,79.93
2022-12-12T23:23:20.974Z,80.12
2022-12-12T23:28:14.081Z,80.40
2022-12-12T23:33:05.894Z,80.28
2022-12-12T23:37:57.412Z,80.41
2022-12-12T23:42:48.969Z,80.21
2022-12-12T23:47:40.957Z,79.50
2022-12-12T23:52:32.513Z,79.76
2022-12-12T23:57:23.997Z,79.57
